Portada
METAR-TAF:

METAR-TAF

Aeroports :

Waterville Robert LaFleur Airport

Waterville, Maine, Estats Units d'Amèrica

latitud: 44-32N, longitud: 069-41W, altitud: 101 m

Observació

L'informe es va fer fa 17 minuts, a les 11:56 UTC
Vent 5 kt del Nord/Nord-Est
Temperatura -13°C
Humitat 66%
Pressió 1033 hPa
Visibilitat: 16.1 km
Cel clar

METAR: KWVL 181156Z AUTO 02005KT 10SM CLR M13/M18 A3050 RMK AO2 SLP364 T11331183 11106 21150 55004 FZRANO

Hora: 07:13 (12:13 UTC)


TAF: manca

Observacions i pronòstics meteorològics de més de 4000 aeroports (METAR i TAF).

Les estacions disponibles són els punts grocs i vermells al mapa.

Posi el ratolí al punt desitjat per veure el nom de l'estació.

Feu clic per veure les observacions i els pronòstics meteorològics.

Per canviar el mapa: feu clic els botons verds amb una creu de color negre per apropar; al botó verd amb un guió per allunyar la imatge; o en les fletxes verdes per a mapes adjacents.


METAR-TAF: